EST,Max TemperatureF,Mean TemperatureF,Min TemperatureF,Max Dew PointF,MeanDew PointF,Min DewpointF,Max Humidity, Mean Humidity, Min Humidity, Max Sea Level PressureIn, Mean Sea Level PressureIn, Min Sea Level PressureIn, Max VisibilityMiles, Mean VisibilityMiles, Min VisibilityMiles, Max Wind SpeedMPH, Mean Wind SpeedMPH, Max Gust SpeedMPH,PrecipitationIn, CloudCover, Events, WindDirDegrees
2013-12-1,53,37,20,30,24,18,92,64,35,30.35,30.16,30.01,10,10,8,9,2,11,0.00,4,,204
2013-12-2,47,43,39,33,31,29,79,66,53,29.99,29.91,29.87,10,10,8,8,1,10,0.00,8,,37
2013-12-3,56,46,35,37,35,32,92,70,47,30.00,29.93,29.88,10,9,7,10,2,13,0.00,4,,186
2013-12-4,60,50,40,51,44,36,89,76,62,30.06,30.02,29.98,10,9,6,12,4,13,0.00,5,,186
2013-12-5,65,58,51,61,56,50,100,89,78,30.07,30.01,29.94,10,6,0,18,9,23,T,7,Fog,196
2013-12-6,66,83,99,63,54,41,100,94,87,30.13,29.98,29.89,10,6,2,18,11,24,0.70,8,Rain,135
2013-12-7,44,36,28,38,32,24,100,79,57,30.52,30.34,30.12,10,10,10,12,5,15,0.03,4,Rain,34
2013-12-8,32,30,27,30,25,20,100,82,63,30.54,30.43,30.28,10,4,1,13,4,14,0.63,8,Rain,43
2013-12-9,39,35,31,37,33,31,100,93,85,30.28,30.12,30.02,10,5,0,12,4,13,0.23,8,Fog-Rain,183
2013-12-10,39,35,30,36,30,15,100,74,47,30.23,30.04,29.98,10,4,0,14,3,23,0.26,6,Fog-Rain-Snow,35
2013-12-11,44,35,26,20,15,11,52,41,30,30.40,30.30,30.24,10,10,10,12,5,15,0.00,0,,206
2013-12-12,39,31,22,16,7,-2,50,35,20,30.42,30.33,30.25,10,10,10,12,4,16,0.00,0,,285
2013-12-13,48,35,22,22,11,7,50,37,23,30.30,30.26,30.22,10,10,10,14,6,25,0.00,0,,216
2013-12-14,36,33,30,34,30,18,100,74,47,30.30,30.08,29.74,10,5,0,13,3,14,0.31,8,Fog-Rain-Snow,15
2013-12-15,49,40,31,35,30,22,100,70,39,29.96,29.77,29.66,10,6,0,18,6,26,0.00,3,Fog,216
2013-12-16,45,39,32,27,25,24,75,60,45,30.16,30.08,29.96,10,10,10,10,5,18,0.00,4,,139
2013-12-17,52,39,25,33,28,24,92,69,46,30.12,30.00,29.90,10,10,8,14,3,21,T,3,,284
2013-12-18,44,36,28,28,17,15,89,61,33,30.22,30.15,30.01,10,10,9,15,6,19,0.00,0,,249
2013-12-19,63,46,29,26,22,16,63,42,21,30.19,30.15,30.09,10,10,10,18,10,30,0.00,0,,200
2013-12-20,61,51,40,37,30,25,54,43,32,30.13,30.08,30.02,10,10,10,16,10,19,0.00,2,,203
2013-12-21,70,60,49,57,49,37,78,67,55,30.04,29.99,29.93,10,10,10,23,12,32,0.00,4,,198
2013-12-22,70,65,60,63,59,51,90,72,53,30.02,29.95,29.86,10,8,2,28,12,46,0.26,7,Rain,203
2013-12-23,62,50,37,61,51,24,100,75,50,30.22,30.01,29.93,10,7,1,16,6,21,0.67,7,Rain,279
2013-12-24,40,32,23,24,16,2,69,51,33,30.48,30.29,30.20,10,10,9,15,6,24,T,2,,320
2013-12-25,33,25,16,11,9,5,67,52,36,30.58,30.48,30.37,10,10,10,10,3,14,0.00,0,,182
2013-12-26,50,35,19,21,15,11,77,52,26,30.37,30.29,30.21,10,10,10,14,6,24,0.00,1,,223
2013-12-27,51,39,26,18,16,13,58,41,24,30.43,30.37,30.32,10,10,10,15,6,19,0.00,0,,214
2013-12-28,59,44,29,24,21,18,58,40,21,30.34,30.25,30.12,10,10,10,14,6,32,0.00,0,,202
2013-12-29,53,47,40,46,40,26,100,71,42,30.11,29.81,29.59,10,4,0,16,5,29,1.64,7,Fog-Rain,38
2013-12-30,48,40,32,36,30,25,79,63,46,30.16,30.02,29.85,10,10,10,10,6,14,0.00,3,,26
2013-12-31,47,36,25,28,21,12,100,64,28,30.32,30.19,30.13,10,10,10,23,7,29,0.00,2,,264